createdAt,value
2023-06-19T00:00:19.868Z,1.48
2023-06-19T00:01:09.970Z,1.50
2023-06-19T00:02:00.005Z,1.42
2023-06-19T00:02:50.179Z,1.45
2023-06-19T00:03:40.288Z,1.40
2023-06-19T00:04:30.464Z,1.45
2023-06-19T00:05:20.332Z,1.45
2023-06-19T00:06:10.399Z,1.49
2023-06-19T00:07:00.463Z,1.47
2023-06-19T00:07:50.549Z,1.46
2023-06-19T00:08:40.541Z,1.50
2023-06-19T00:09:30.600Z,1.52
2023-06-19T00:10:21.044Z,1.43
2023-06-19T00:11:10.847Z,1.41
2023-06-19T00:12:00.819Z,1.47
2023-06-19T00:12:50.898Z,1.39
2023-06-19T00:13:40.919Z,1.48
2023-06-19T00:14:30.939Z,1.46
2023-06-19T00:15:20.974Z,1.43
2023-06-19T00:16:11.167Z,1.45
2023-06-19T00:17:01.227Z,1.48
2023-06-19T00:17:51.397Z,1.45
2023-06-19T00:18:41.941Z,1.42
2023-06-19T00:19:31.392Z,1.55
2023-06-19T00:20:21.717Z,1.48
2023-06-19T00:21:11.535Z,1.40
2023-06-19T00:22:01.552Z,1.48
2023-06-19T00:22:51.682Z,1.55
2023-06-19T00:23:41.720Z,1.42
2023-06-19T00:24:31.893Z,1.57
2023-06-19T00:25:21.829Z,1.42
2023-06-19T00:26:11.906Z,1.48
2023-06-19T00:27:01.941Z,1.59
2023-06-19T00:27:52.024Z,1.43
2023-06-19T00:28:42.018Z,1.42
2023-06-19T00:29:32.090Z,1.47
2023-06-19T00:30:22.572Z,1.46
2023-06-19T00:31:12.318Z,1.43
2023-06-19T00:32:02.297Z,1.46
2023-06-19T00:32:52.379Z,1.48
2023-06-19T00:33:42.386Z,1.42
2023-06-19T00:34:32.520Z,1.39
2023-06-19T00:35:22.492Z,1.48
2023-06-19T00:36:12.665Z,1.41
2023-06-19T00:37:02.631Z,1.46
2023-06-19T00:37:52.711Z,1.51
2023-06-19T00:38:42.698Z,1.44
2023-06-19T00:39:32.856Z,1.45
2023-06-19T00:40:23.049Z,1.47
2023-06-19T00:41:12.904Z,1.38
2023-06-19T00:42:03.074Z,1.51
2023-06-19T00:42:53.153Z,1.40
2023-06-19T00:43:43.154Z,1.39
2023-06-19T00:44:33.199Z,1.51
2023-06-19T00:45:23.236Z,1.44
2023-06-19T00:46:13.421Z,1.44
2023-06-19T00:47:03.335Z,1.38
2023-06-19T00:47:53.470Z,1.44
2023-06-19T00:48:43.513Z,1.40
2023-06-19T00:49:33.647Z,1.40
2023-06-19T00:50:23.881Z,1.45
2023-06-19T00:51:13.692Z,1.42
2023-06-19T00:52:03.715Z,1.42
2023-06-19T00:52:53.841Z,1.39
2023-06-19T00:53:43.793Z,1.49
2023-06-19T00:54:33.890Z,1.47
2023-06-19T00:55:23.977Z,1.42
2023-06-19T00:56:14.033Z,1.41
2023-06-19T00:57:04.112Z,1.38
2023-06-19T00:57:54.290Z,1.47
2023-06-19T00:58:44.182Z,1.48
2023-06-19T00:59:34.338Z,1.40
2023-06-19T01:00:24.442Z,1.45
2023-06-19T01:01:14.403Z,1.39
2023-06-19T01:02:04.652Z,1.45
2023-06-19T01:02:54.835Z,1.41
2023-06-19T01:03:45.098Z,1.44
2023-06-19T01:04:34.847Z,1.40
2023-06-19T01:05:24.818Z,1.35
2023-06-19T01:06:14.926Z,1.35
2023-06-19T01:07:04.970Z,1.36
2023-06-19T01:07:55.082Z,1.37
2023-06-19T01:08:45.068Z,1.39
2023-06-19T01:09:35.241Z,1.39
2023-06-19T01:10:25.482Z,1.41
2023-06-19T01:11:26.128Z,1.39
2023-06-19T01:12:06.329Z,1.37
2023-06-19T01:12:55.419Z,1.40
2023-06-19T01:13:45.444Z,1.35
2023-06-19T01:14:35.597Z,1.44
2023-06-19T01:15:25.561Z,1.40
2023-06-19T01:16:15.783Z,1.45
2023-06-19T01:17:05.737Z,1.48
2023-06-19T01:17:56.061Z,1.44
2023-06-19T01:18:45.986Z,1.41
2023-06-19T01:19:36.117Z,1.43
2023-06-19T01:20:26.318Z,1.49
2023-06-19T01:21:16.177Z,1.46
2023-06-19T01:22:06.198Z,1.51
2023-06-19T01:22:56.342Z,1.42
2023-06-19T01:23:46.292Z,1.49
2023-06-19T01:24:36.622Z,1.49
2023-06-19T01:25:26.400Z,1.42
2023-06-19T01:26:16.510Z,1.41
2023-06-19T01:27:06.510Z,1.50
2023-06-19T01:27:56.588Z,1.54
2023-06-19T01:28:46.583Z,1.39
2023-06-19T01:29:36.727Z,1.44
2023-06-19T01:30:26.770Z,1.47
2023-06-19T01:31:16.750Z,1.50
2023-06-19T01:32:06.746Z,1.42
2023-06-19T01:32:56.958Z,1.43
2023-06-19T01:33:46.981Z,1.50
2023-06-19T01:34:40.691Z,1.43
2023-06-19T01:35:27.053Z,1.43
2023-06-19T01:36:17.194Z,1.34
2023-06-19T01:37:07.183Z,1.39
2023-06-19T01:37:57.314Z,1.43
2023-06-19T01:38:47.316Z,1.45
2023-06-19T01:39:37.385Z,1.40
2023-06-19T01:40:27.550Z,1.43
2023-06-19T01:41:17.648Z,1.37
2023-06-19T01:42:07.661Z,1.36
2023-06-19T01:42:57.720Z,1.38
2023-06-19T01:43:47.775Z,1.49
2023-06-19T01:44:37.833Z,1.29
2023-06-19T01:45:27.851Z,1.43
2023-06-19T01:46:17.996Z,1.39
2023-06-19T01:47:08.024Z,1.36
2023-06-19T01:47:58.191Z,1.33
2023-06-19T01:48:48.135Z,1.40
2023-06-19T01:49:38.278Z,1.40
2023-06-19T01:50:28.272Z,1.34
2023-06-19T01:51:18.321Z,1.41
2023-06-19T01:52:08.358Z,1.34
2023-06-19T01:52:58.504Z,1.35
2023-06-19T01:53:48.537Z,1.39
2023-06-19T01:54:38.619Z,1.33
2023-06-19T01:55:28.619Z,1.35
2023-06-19T01:56:18.674Z,1.32
2023-06-19T01:57:08.705Z,1.41
2023-06-19T01:57:58.872Z,1.36
2023-06-19T01:58:48.860Z,1.30
2023-06-19T01:59:38.977Z,1.32
2023-06-19T02:00:28.995Z,1.37
2023-06-19T02:01:19.138Z,1.31
2023-06-19T02:02:09.152Z,1.44
2023-06-19T02:02:59.427Z,1.40
2023-06-19T02:03:49.288Z,1.40
2023-06-19T02:04:39.315Z,1.33
2023-06-19T02:05:29.339Z,1.39
2023-06-19T02:06:19.470Z,1.31
2023-06-19T02:07:09.445Z,1.31
2023-06-19T02:07:59.527Z,1.34
2023-06-19T02:08:49.518Z,1.34
2023-06-19T02:09:39.648Z,1.36
2023-06-19T02:10:29.637Z,1.33
2023-06-19T02:11:19.803Z,1.32
2023-06-19T02:12:09.789Z,1.35
2023-06-19T02:12:59.872Z,1.35
2023-06-19T02:13:49.885Z,1.33
2023-06-19T02:14:40.024Z,1.31
2023-06-19T02:15:29.947Z,1.33
2023-06-19T02:16:20.142Z,1.37
2023-06-19T02:17:10.122Z,1.36
2023-06-19T02:18:00.306Z,1.31
2023-06-19T02:18:50.202Z,1.38
2023-06-19T02:19:40.333Z,1.42
2023-06-19T02:20:30.344Z,1.34
2023-06-19T02:21:20.395Z,1.32
2023-06-19T02:22:10.430Z,1.37
2023-06-19T02:23:00.563Z,1.31
2023-06-19T02:23:50.547Z,1.33
2023-06-19T02:24:40.933Z,1.36
2023-06-19T02:25:30.737Z,1.33
2023-06-19T02:26:20.826Z,1.45
2023-06-19T02:27:10.822Z,1.45
2023-06-19T02:28:00.900Z,1.43
2023-06-19T02:28:50.891Z,1.28
2023-06-19T02:29:41.028Z,1.37
2023-06-19T02:30:30.979Z,1.35
2023-06-19T02:31:21.179Z,1.28
2023-06-19T02:32:11.174Z,1.32
2023-06-19T02:33:01.353Z,1.32
2023-06-19T02:33:51.271Z,1.29
2023-06-19T02:34:41.362Z,1.37
2023-06-19T02:35:31.358Z,1.40
2023-06-19T02:36:21.406Z,1.30
2023-06-19T02:37:11.449Z,1.28
2023-06-19T02:38:01.694Z,1.33
2023-06-19T02:38:51.621Z,1.35
2023-06-19T02:39:41.705Z,1.40
2023-06-19T02:40:31.743Z,1.37
2023-06-19T02:41:21.857Z,1.34
2023-06-19T02:42:11.813Z,1.37
2023-06-19T02:43:01.931Z,1.36
2023-06-19T02:43:51.929Z,1.43
2023-06-19T02:44:42.152Z,1.34
2023-06-19T02:45:32.172Z,1.31
2023-06-19T02:46:22.246Z,1.32
2023-06-19T02:47:12.215Z,1.43
2023-06-19T02:48:02.359Z,1.40
2023-06-19T02:48:52.338Z,1.32
2023-06-19T02:49:42.502Z,1.31
2023-06-19T02:50:32.442Z,1.33
2023-06-19T02:51:22.550Z,1.41
2023-06-19T02:52:12.586Z,1.39
2023-06-19T02:53:02.714Z,1.26
2023-06-19T02:53:52.709Z,1.37
2023-06-19T02:54:42.845Z,1.33
2023-06-19T02:55:32.805Z,1.34
2023-06-19T02:56:22.937Z,1.28
2023-06-19T02:57:12.877Z,1.32
2023-06-19T02:58:03.064Z,1.36
2023-06-19T02:58:53.054Z,1.37
2023-06-19T02:59:43.186Z,1.27
2023-06-19T03:00:33.131Z,1.27
2023-06-19T03:01:23.253Z,1.42
2023-06-19T03:02:13.253Z,1.37
2023-06-19T03:03:03.478Z,1.29
2023-06-19T03:03:53.329Z,1.29
2023-06-19T03:04:43.449Z,1.36
2023-06-19T03:05:33.460Z,1.33
2023-06-19T03:06:23.570Z,1.35
2023-06-19T03:07:13.566Z,1.29
2023-06-19T03:08:03.642Z,1.30
2023-06-19T03:08:53.637Z,1.33
2023-06-19T03:09:43.766Z,1.38
2023-06-19T03:10:33.713Z,1.41
2023-06-19T03:11:23.917Z,1.25
2023-06-19T03:12:13.908Z,1.24
2023-06-19T03:13:03.986Z,1.31
2023-06-19T03:13:54.017Z,1.22
2023-06-19T03:14:44.106Z,1.29
2023-06-19T03:15:34.095Z,1.28
2023-06-19T03:16:24.179Z,1.32
2023-06-19T03:17:14.244Z,1.26
2023-06-19T03:18:04.543Z,1.25
2023-06-19T03:18:54.390Z,1.20
2023-06-19T03:19:44.553Z,1.25
2023-06-19T03:20:34.612Z,1.24
2023-06-19T03:21:24.607Z,1.24
2023-06-19T03:22:14.598Z,1.31
2023-06-19T03:23:04.699Z,1.22
2023-06-19T03:23:54.692Z,1.33
2023-06-19T03:24:44.940Z,1.28
2023-06-19T03:25:34.955Z,1.25
2023-06-19T03:26:25.054Z,1.24
2023-06-19T03:27:15.039Z,1.26
2023-06-19T03:28:05.128Z,1.24
2023-06-19T03:28:55.120Z,1.24
2023-06-19T03:29:45.242Z,1.30
2023-06-19T03:30:35.228Z,1.29
2023-06-19T03:31:25.392Z,1.27
2023-06-19T03:32:15.441Z,1.36
2023-06-19T03:33:05.595Z,1.20
2023-06-19T03:33:55.528Z,1.21
2023-06-19T03:34:45.581Z,1.36
2023-06-19T03:35:35.597Z,1.24
2023-06-19T03:36:25.757Z,1.20
2023-06-19T03:37:15.723Z,1.22
2023-06-19T03:38:05.817Z,1.23
2023-06-19T03:38:55.799Z,1.37
2023-06-19T03:39:45.924Z,1.26
2023-06-19T03:40:35.917Z,1.25
2023-06-19T03:41:26.073Z,1.23
2023-06-19T03:42:16.065Z,1.24
2023-06-19T03:43:06.150Z,1.27
2023-06-19T03:43:56.149Z,1.31
2023-06-19T03:44:46.271Z,1.22
2023-06-19T03:45:36.216Z,1.28
2023-06-19T03:46:26.347Z,1.31
2023-06-19T03:47:16.303Z,1.31
2023-06-19T03:48:06.542Z,1.22
2023-06-19T03:48:56.432Z,1.28
2023-06-19T03:49:46.622Z,1.32
2023-06-19T03:50:36.950Z,1.25
2023-06-19T03:51:26.659Z,1.28
2023-06-19T03:52:16.766Z,1.28
2023-06-19T03:53:06.738Z,1.29
2023-06-19T03:53:56.775Z,1.31
2023-06-19T03:54:46.860Z,1.22
2023-06-19T03:55:36.897Z,1.29
2023-06-19T03:56:27.009Z,1.32
2023-06-19T03:57:17.040Z,1.32
2023-06-19T03:58:07.210Z,1.27
2023-06-19T03:58:57.188Z,1.24
2023-06-19T03:59:47.300Z,1.28
2023-06-19T04:00:37.250Z,1.24
2023-06-19T04:01:27.457Z,1.27
2023-06-19T04:02:17.357Z,1.29
2023-06-19T04:03:07.658Z,1.31
2023-06-19T04:03:57.492Z,1.26
2023-06-19T04:04:47.537Z,1.21
2023-06-19T04:05:37.563Z,1.20
2023-06-19T04:06:27.687Z,1.25
2023-06-19T04:07:17.678Z,1.33
2023-06-19T04:08:07.790Z,1.24
2023-06-19T04:08:57.757Z,1.25
2023-06-19T04:09:47.883Z,1.22
2023-06-19T04:10:37.867Z,1.30
2023-06-19T04:11:28.026Z,1.28
2023-06-19T04:12:18.019Z,1.28
2023-06-19T04:13:08.251Z,1.27
2023-06-19T04:13:58.153Z,1.24
2023-06-19T04:14:48.260Z,1.27
2023-06-19T04:15:38.262Z,1.24
2023-06-19T04:16:28.393Z,1.24
2023-06-19T04:17:18.414Z,1.25
2023-06-19T04:18:08.599Z,1.26
2023-06-19T04:18:58.545Z,1.25
2023-06-19T04:19:48.673Z,1.26
2023-06-19T04:20:38.619Z,1.17
2023-06-19T04:21:28.714Z,1.25
2023-06-19T04:22:18.716Z,1.30
2023-06-19T04:23:08.892Z,1.26
2023-06-19T04:23:58.907Z,1.23
2023-06-19T04:24:49.018Z,1.24
2023-06-19T04:25:38.954Z,1.28
2023-06-19T04:26:29.057Z,1.26
2023-06-19T04:27:19.093Z,1.30
2023-06-19T04:28:09.240Z,1.24
2023-06-19T04:28:59.185Z,1.22
2023-06-19T04:29:49.357Z,1.23
2023-06-19T04:30:39.297Z,1.21
2023-06-19T04:31:29.412Z,1.30
2023-06-19T04:32:19.493Z,1.17
2023-06-19T04:33:09.761Z,1.25
2023-06-19T04:33:59.524Z,1.25
2023-06-19T04:34:49.698Z,1.26
2023-06-19T04:35:39.642Z,1.27
2023-06-19T04:36:29.745Z,1.25
2023-06-19T04:37:19.773Z,1.16
2023-06-19T04:38:09.926Z,1.26
2023-06-19T04:38:59.919Z,1.22
2023-06-19T04:39:50.082Z,1.28
2023-06-19T04:40:39.999Z,1.16
2023-06-19T04:41:30.086Z,1.21
2023-06-19T04:42:20.124Z,1.22
2023-06-19T04:43:10.264Z,1.28
2023-06-19T04:44:00.213Z,1.16
2023-06-19T04:44:50.382Z,1.24
2023-06-19T04:45:40.337Z,1.17
2023-06-19T04:46:30.493Z,1.19
2023-06-19T04:47:20.489Z,1.21
2023-06-19T04:48:10.677Z,1.22
2023-06-19T04:49:00.526Z,1.21
2023-06-19T04:49:50.628Z,1.20
2023-06-19T04:50:40.646Z,1.18
2023-06-19T04:51:30.789Z,1.21
2023-06-19T04:52:20.749Z,1.23
2023-06-19T04:53:10.848Z,1.19
2023-06-19T04:54:00.872Z,1.23
2023-06-19T04:54:50.973Z,1.25
2023-06-19T04:55:41.125Z,1.25
2023-06-19T04:56:31.112Z,1.16
2023-06-19T04:57:21.102Z,1.19
2023-06-19T04:58:11.294Z,1.14
2023-06-19T04:59:01.243Z,1.20
2023-06-19T04:59:51.412Z,1.24
2023-06-19T05:00:41.448Z,1.20
2023-06-19T05:01:31.622Z,1.19
2023-06-19T05:02:21.559Z,1.24
2023-06-19T05:03:11.676Z,1.18
2023-06-19T05:04:01.737Z,1.17
2023-06-19T05:04:51.799Z,1.17
2023-06-19T05:05:41.763Z,1.17
2023-06-19T05:06:31.907Z,1.17
2023-06-19T05:07:21.882Z,1.13
2023-06-19T05:08:11.986Z,1.19
2023-06-19T05:09:02.106Z,1.20
2023-06-19T05:09:52.201Z,1.25
2023-06-19T05:10:44.333Z,1.19
2023-06-19T05:11:32.379Z,1.16
2023-06-19T05:12:22.336Z,1.19
2023-06-19T05:13:12.534Z,1.19
2023-06-19T05:14:02.468Z,1.19
2023-06-19T05:14:52.562Z,1.21
2023-06-19T05:15:42.615Z,1.30
2023-06-19T05:16:35.151Z,1.21
2023-06-19T05:17:22.954Z,1.22
2023-06-19T05:18:13.022Z,1.22
2023-06-19T05:19:02.954Z,1.19
2023-06-19T05:19:53.094Z,1.21
2023-06-19T05:20:43.088Z,1.18
2023-06-19T05:21:33.249Z,1.12
2023-06-19T05:22:23.402Z,1.19
2023-06-19T05:23:13.536Z,1.26
2023-06-19T05:24:03.547Z,1.15
2023-06-19T05:24:53.641Z,1.13
2023-06-19T05:25:43.635Z,1.14
2023-06-19T05:26:33.792Z,1.15
2023-06-19T05:27:23.756Z,1.23
2023-06-19T05:28:13.874Z,1.20
2023-06-19T05:29:03.899Z,1.17
2023-06-19T05:29:53.996Z,1.21
2023-06-19T05:30:44.019Z,1.15
2023-06-19T05:31:34.136Z,1.19
2023-06-19T05:32:24.190Z,1.21
2023-06-19T05:33:14.313Z,1.18
2023-06-19T05:34:04.260Z,1.17
2023-06-19T05:34:54.360Z,1.17
2023-06-19T05:35:44.390Z,1.21
2023-06-19T05:36:34.487Z,1.15
2023-06-19T05:37:24.510Z,1.22
2023-06-19T05:38:14.970Z,1.21
2023-06-19T05:39:04.911Z,1.18
2023-06-19T05:39:54.981Z,1.21
2023-06-19T05:40:45.018Z,1.14
2023-06-19T05:41:35.130Z,1.20
2023-06-19T05:42:25.123Z,1.20
2023-06-19T05:43:15.233Z,1.21
2023-06-19T05:44:05.200Z,1.11
2023-06-19T05:44:55.427Z,1.15
2023-06-19T05:45:45.412Z,1.18
2023-06-19T05:46:35.473Z,1.22
2023-06-19T05:47:25.497Z,1.17
2023-06-19T05:48:15.600Z,1.11
2023-06-19T05:49:05.558Z,1.08
2023-06-19T05:49:55.670Z,1.19
2023-06-19T05:50:45.726Z,1.10
2023-06-19T05:51:35.817Z,1.12
2023-06-19T05:52:25.808Z,1.13
2023-06-19T05:53:16.101Z,1.15
2023-06-19T05:54:05.917Z,1.16
2023-06-19T05:54:56.044Z,1.17
2023-06-19T05:55:45.981Z,1.10
2023-06-19T05:56:36.062Z,1.13
2023-06-19T05:57:26.059Z,1.13
2023-06-19T05:58:16.331Z,1.13
2023-06-19T05:59:06.304Z,1.18
2023-06-19T05:59:56.454Z,1.20
2023-06-19T06:00:46.446Z,1.24
2023-06-19T06:01:36.546Z,1.14
2023-06-19T06:02:26.518Z,1.20
2023-06-19T06:03:16.581Z,1.13
2023-06-19T06:04:06.613Z,1.16
2023-06-19T06:04:56.822Z,1.13
2023-06-19T06:05:46.731Z,1.18
2023-06-19T06:06:36.848Z,1.10
2023-06-19T06:07:26.825Z,1.13
2023-06-19T06:08:16.925Z,1.13
2023-06-19T06:09:06.965Z,1.13
2023-06-19T06:09:57.043Z,1.14
2023-06-19T06:10:49.948Z,1.14
2023-06-19T06:11:37.189Z,1.13
2023-06-19T06:12:27.186Z,1.13
2023-06-19T06:13:17.262Z,1.16
2023-06-19T06:14:07.293Z,1.14
2023-06-19T06:14:57.408Z,1.17
2023-06-19T06:15:47.403Z,1.14
2023-06-19T06:16:37.607Z,1.13
2023-06-19T06:17:27.666Z,1.17
2023-06-19T06:18:17.810Z,1.15
2023-06-19T06:19:07.817Z,1.19
2023-06-19T06:19:57.830Z,1.14
2023-06-19T06:20:47.865Z,1.16
2023-06-19T06:21:37.974Z,1.16
2023-06-19T06:22:28.082Z,1.18
2023-06-19T06:23:18.150Z,1.11
2023-06-19T06:24:08.187Z,1.15
2023-06-19T06:24:58.270Z,1.08
2023-06-19T06:25:48.276Z,1.11
2023-06-19T06:26:38.325Z,1.20
2023-06-19T06:27:28.353Z,1.08
2023-06-19T06:28:18.497Z,1.15
2023-06-19T06:29:08.489Z,1.24
2023-06-19T06:29:58.617Z,1.15
2023-06-19T06:30:48.682Z,1.22
2023-06-19T06:31:38.769Z,1.16
2023-06-19T06:32:28.806Z,1.19
2023-06-19T06:33:18.938Z,1.16
2023-06-19T06:34:08.951Z,1.18
2023-06-19T06:34:59.054Z,1.17
2023-06-19T06:35:49.040Z,1.11
2023-06-19T06:36:46.503Z,1.19
2023-06-19T06:37:30.163Z,1.19
2023-06-19T06:38:19.319Z,1.17
2023-06-19T06:39:09.236Z,1.17
2023-06-19T06:39:59.406Z,1.14
2023-06-19T06:40:49.362Z,1.14
2023-06-19T06:41:39.450Z,1.08
2023-06-19T06:42:29.433Z,1.17
2023-06-19T06:43:19.825Z,1.15
2023-06-19T06:44:09.815Z,1.13
2023-06-19T06:44:59.947Z,1.12
2023-06-19T06:45:49.958Z,1.11
2023-06-19T06:46:40.304Z,1.15
2023-06-19T06:47:30.103Z,1.18
2023-06-19T06:48:20.180Z,1.17
2023-06-19T06:49:10.164Z,1.16
2023-06-19T06:50:00.340Z,1.14
2023-06-19T06:50:50.239Z,1.10
2023-06-19T06:51:40.345Z,1.16
2023-06-19T06:52:30.368Z,1.20
2023-06-19T06:53:20.512Z,1.12
2023-06-19T06:54:10.456Z,1.09
2023-06-19T06:55:00.529Z,1.17
2023-06-19T06:55:50.564Z,1.12
2023-06-19T06:56:40.786Z,1.17
2023-06-19T06:57:30.774Z,1.12
2023-06-19T06:58:20.867Z,1.14
2023-06-19T06:59:10.845Z,1.16
2023-06-19T07:00:00.982Z,1.13
2023-06-19T07:00:50.950Z,1.13
2023-06-19T07:01:41.018Z,1.12
2023-06-19T07:02:31.153Z,1.16
2023-06-19T07:03:21.303Z,1.12
2023-06-19T07:04:11.190Z,1.12
2023-06-19T07:05:01.323Z,1.20
2023-06-19T07:05:51.266Z,1.20
2023-06-19T07:06:41.381Z,1.11
2023-06-19T07:07:31.404Z,1.15
2023-06-19T07:08:21.554Z,1.19
2023-06-19T07:09:11.501Z,1.12
2023-06-19T07:10:01.567Z,1.23
2023-06-19T07:10:51.593Z,1.11
2023-06-19T07:11:41.730Z,1.14
2023-06-19T07:12:31.693Z,1.12
2023-06-19T07:13:21.804Z,1.12
2023-06-19T07:14:11.823Z,1.12
2023-06-19T07:15:01.913Z,1.07
2023-06-19T07:15:51.923Z,1.12
2023-06-19T07:16:42.092Z,1.16
2023-06-19T07:17:32.104Z,1.16
2023-06-19T07:18:22.260Z,1.13
2023-06-19T07:19:12.222Z,1.20
2023-06-19T07:20:02.656Z,1.17
2023-06-19T07:20:52.603Z,1.24
2023-06-19T07:21:42.706Z,1.16
2023-06-19T07:22:32.735Z,1.16
2023-06-19T07:23:22.884Z,1.17
2023-06-19T07:24:12.844Z,1.13
2023-06-19T07:25:02.911Z,1.17
2023-06-19T07:25:52.930Z,1.13
2023-06-19T07:26:43.083Z,1.14
2023-06-19T07:27:33.051Z,1.18
2023-06-19T07:28:23.228Z,1.07
2023-06-19T07:29:13.171Z,1.14
2023-06-19T07:30:03.342Z,1.10
2023-06-19T07:30:53.298Z,1.16
2023-06-19T07:31:43.392Z,1.14
2023-06-19T07:32:33.450Z,1.16
2023-06-19T07:33:23.578Z,1.12
2023-06-19T07:34:13.901Z,1.15
2023-06-19T07:35:03.591Z,1.17
2023-06-19T07:35:53.612Z,1.14
2023-06-19T07:36:43.735Z,1.19
2023-06-19T07:37:35.828Z,1.15
2023-06-19T07:38:23.815Z,1.14
2023-06-19T07:39:13.839Z,1.14
2023-06-19T07:40:03.932Z,1.14
2023-06-19T07:40:53.952Z,1.16
2023-06-19T07:41:44.077Z,1.09
2023-06-19T07:42:34.052Z,1.12
2023-06-19T07:43:24.275Z,1.09
2023-06-19T07:44:14.226Z,1.11
2023-06-19T07:45:04.373Z,1.18
2023-06-19T07:45:54.344Z,1.09
2023-06-19T07:46:44.442Z,1.17
2023-06-19T07:47:34.430Z,1.22
2023-06-19T07:48:24.625Z,1.06
2023-06-19T07:49:14.558Z,1.17
2023-06-19T07:50:04.733Z,1.11
2023-06-19T07:50:54.656Z,1.15
2023-06-19T07:51:44.762Z,1.11
2023-06-19T07:52:34.794Z,1.09
2023-06-19T07:53:24.941Z,1.12
2023-06-19T07:54:14.892Z,1.08
2023-06-19T07:55:05.062Z,1.09
2023-06-19T07:55:54.998Z,1.08
2023-06-19T07:56:45.115Z,1.10
2023-06-19T07:57:35.143Z,1.06
2023-06-19T07:58:25.287Z,1.12
2023-06-19T07:59:15.512Z,1.11
2023-06-19T08:00:05.615Z,1.08
2023-06-19T08:00:55.652Z,1.05
2023-06-19T08:01:45.757Z,1.12
2023-06-19T08:02:35.818Z,1.08
2023-06-19T08:03:25.993Z,1.08
2023-06-19T08:04:15.941Z,1.14
2023-06-19T08:05:05.964Z,1.15
2023-06-19T08:05:56.096Z,1.12
2023-06-19T08:06:46.213Z,1.12
2023-06-19T08:07:36.145Z,1.07
2023-06-19T08:08:26.289Z,1.07
2023-06-19T08:09:16.280Z,1.09
2023-06-19T08:10:13.193Z,1.13
2023-06-19T08:10:57.481Z,1.09
2023-06-19T08:11:46.565Z,1.06
2023-06-19T08:12:36.555Z,1.08
2023-06-19T08:13:26.722Z,1.12
2023-06-19T08:14:16.655Z,1.07
2023-06-19T08:15:06.736Z,1.04
2023-06-19T08:15:56.765Z,1.05
2023-06-19T08:16:47.144Z,1.08
2023-06-19T08:17:37.140Z,1.06
2023-06-19T08:18:27.168Z,1.07
2023-06-19T08:19:17.196Z,1.07
2023-06-19T08:20:07.295Z,1.07
2023-06-19T08:20:57.304Z,1.05
2023-06-19T08:21:47.473Z,1.06
2023-06-19T08:22:37.415Z,1.08
2023-06-19T08:23:27.508Z,1.13
2023-06-19T08:24:17.555Z,1.11
2023-06-19T08:25:07.639Z,1.14
2023-06-19T08:25:57.656Z,1.11
2023-06-19T08:26:47.779Z,1.14
2023-06-19T08:27:37.778Z,1.18
2023-06-19T08:28:27.958Z,1.06
2023-06-19T08:29:17.911Z,1.12
2023-06-19T08:30:08.088Z,1.08
2023-06-19T08:30:58.009Z,1.13
2023-06-19T08:31:48.115Z,1.15
2023-06-19T08:32:38.576Z,1.12
2023-06-19T08:33:28.504Z,1.10
2023-06-19T08:34:18.461Z,1.05
2023-06-19T08:35:08.622Z,1.15
2023-06-19T08:35:58.565Z,1.07
2023-06-19T08:36:48.666Z,1.08
2023-06-19T08:37:38.733Z,1.13
2023-06-19T08:38:28.844Z,1.06
2023-06-19T08:39:18.957Z,1.05
2023-06-19T08:40:09.068Z,1.10
2023-06-19T08:40:59.105Z,1.05
2023-06-19T08:41:49.217Z,1.09
2023-06-19T08:42:39.247Z,1.10
2023-06-19T08:43:29.393Z,1.12
2023-06-19T08:44:19.366Z,1.08
2023-06-19T08:45:09.512Z,1.07
2023-06-19T08:45:59.525Z,1.08
2023-06-19T08:46:49.674Z,1.10
2023-06-19T08:47:39.687Z,1.08
2023-06-19T08:48:30.054Z,1.09
2023-06-19T08:49:19.989Z,1.10
2023-06-19T08:50:10.185Z,1.15
2023-06-19T08:51:00.107Z,1.09
2023-06-19T08:51:50.208Z,1.08
2023-06-19T08:52:40.241Z,1.03
2023-06-19T08:53:30.414Z,1.13
2023-06-19T08:54:20.392Z,1.07
2023-06-19T08:55:10.506Z,1.03
2023-06-19T08:56:00.468Z,1.06
2023-06-19T08:56:50.590Z,1.10
2023-06-19T08:57:40.702Z,1.12
2023-06-19T08:58:30.745Z,1.07
2023-06-19T08:59:20.679Z,1.05
2023-06-19T09:00:10.870Z,1.13
2023-06-19T09:01:00.801Z,1.12
2023-06-19T09:01:51.107Z,1.15
2023-06-19T09:02:41.213Z,1.05
2023-06-19T09:03:31.372Z,1.07
2023-06-19T09:04:21.263Z,1.06
2023-06-19T09:05:11.299Z,1.06
2023-06-19T09:06:01.374Z,1.08
2023-06-19T09:06:51.436Z,1.08
2023-06-19T09:07:41.450Z,1.05
2023-06-19T09:08:31.627Z,1.05
2023-06-19T09:09:21.646Z,1.05
2023-06-19T09:10:11.754Z,1.02
2023-06-19T09:11:01.736Z,1.07
2023-06-19T09:11:51.897Z,1.05
2023-06-19T09:12:41.878Z,1.04
2023-06-19T09:13:32.079Z,1.07
2023-06-19T09:14:22.019Z,1.04
2023-06-19T09:15:12.184Z,1.06
2023-06-19T09:16:02.133Z,1.04
2023-06-19T09:16:52.233Z,1.00
2023-06-19T09:17:42.300Z,1.05
2023-06-19T09:18:32.426Z,1.02
2023-06-19T09:19:22.360Z,1.07
2023-06-19T09:20:12.534Z,1.03
2023-06-19T09:21:02.525Z,1.04
2023-06-19T09:21:52.683Z,1.10
2023-06-19T09:22:42.625Z,1.06
2023-06-19T09:23:32.762Z,1.13
2023-06-19T09:24:22.789Z,1.04
2023-06-19T09:25:12.946Z,1.07
2023-06-19T09:26:02.880Z,1.06
2023-06-19T09:26:53.026Z,1.01
2023-06-19T09:27:43.009Z,1.03
2023-06-19T09:28:33.114Z,1.02
2023-06-19T09:29:23.133Z,1.07
2023-06-19T09:30:13.217Z,1.04
2023-06-19T09:31:03.259Z,1.09
2023-06-19T09:31:54.390Z,1.01
2023-06-19T09:32:43.384Z,1.03
2023-06-19T09:33:33.606Z,1.03
2023-06-19T09:34:23.485Z,1.10
2023-06-19T09:35:13.659Z,1.05
2023-06-19T09:36:03.616Z,1.05
2023-06-19T09:36:53.707Z,1.06
2023-06-19T09:37:43.738Z,1.02
2023-06-19T09:38:33.889Z,1.02
2023-06-19T09:39:23.882Z,1.03
2023-06-19T09:40:14.003Z,1.04
2023-06-19T09:41:03.999Z,1.07
2023-06-19T09:41:54.072Z,1.04
2023-06-19T09:42:44.061Z,1.04
2023-06-19T09:43:34.133Z,1.01
2023-06-19T09:44:24.167Z,1.04
2023-06-19T09:45:14.250Z,1.05
2023-06-19T09:46:04.256Z,0.98
2023-06-19T09:46:54.413Z,0.98
2023-06-19T09:47:45.769Z,0.99
2023-06-19T09:48:34.469Z,0.99
2023-06-19T09:49:24.577Z,1.00
2023-06-19T09:50:14.693Z,1.00
2023-06-19T09:51:04.712Z,0.99
2023-06-19T09:51:55.144Z,1.00
2023-06-19T09:52:45.090Z,0.99
2023-06-19T09:53:35.216Z,1.11
2023-06-19T09:54:25.218Z,0.99
2023-06-19T09:55:15.337Z,1.04
2023-06-19T09:56:05.329Z,1.01
2023-06-19T09:56:55.519Z,1.01
2023-06-19T09:57:45.427Z,1.04
2023-06-19T09:58:35.569Z,0.99
2023-06-19T09:59:25.565Z,1.00
2023-06-19T10:00:15.682Z,1.07
2023-06-19T10:01:05.992Z,0.96
2023-06-19T10:01:56.170Z,1.00
2023-06-19T10:02:46.233Z,0.98
2023-06-19T10:03:36.256Z,1.05
2023-06-19T10:04:26.166Z,1.00
2023-06-19T10:05:16.344Z,1.02
2023-06-19T10:06:06.276Z,1.08
2023-06-19T10:06:56.379Z,1.02
2023-06-19T10:07:46.544Z,1.02
2023-06-19T10:08:36.665Z,0.99
2023-06-19T10:09:26.650Z,1.05
2023-06-19T10:10:16.776Z,1.02
2023-06-19T10:11:06.798Z,1.02
2023-06-19T10:11:56.925Z,1.00
2023-06-19T10:12:46.899Z,1.04
2023-06-19T10:13:37.001Z,0.98
2023-06-19T10:14:27.078Z,1.01
2023-06-19T10:15:17.237Z,1.05
2023-06-19T10:16:07.216Z,0.96
2023-06-19T10:16:57.408Z,1.05
2023-06-19T10:17:47.404Z,1.05
2023-06-19T10:18:37.552Z,1.02
2023-06-19T10:19:27.494Z,1.00
2023-06-19T10:20:17.672Z,1.03
2023-06-19T10:21:07.658Z,0.94
2023-06-19T10:21:59.389Z,1.06
2023-06-19T10:22:47.759Z,1.04
2023-06-19T10:23:38.278Z,1.03
2023-06-19T10:24:28.191Z,1.04
2023-06-19T10:25:18.321Z,1.02
2023-06-19T10:26:08.512Z,1.01
2023-06-19T10:26:58.678Z,0.99
2023-06-19T10:27:48.647Z,1.01
2023-06-19T10:28:38.754Z,1.01
2023-06-19T10:29:28.978Z,0.99
2023-06-19T10:30:19.138Z,1.03
2023-06-19T10:31:08.855Z,1.03
2023-06-19T10:31:58.921Z,0.97
2023-06-19T10:32:49.088Z,0.98
2023-06-19T10:33:39.196Z,0.98
2023-06-19T10:34:29.143Z,0.97
2023-06-19T10:35:19.316Z,1.00
2023-06-19T10:36:09.259Z,0.98
2023-06-19T10:36:59.361Z,1.01
2023-06-19T10:37:49.406Z,1.04
2023-06-19T10:38:39.547Z,1.03
2023-06-19T10:39:29.699Z,1.01
2023-06-19T10:40:19.759Z,1.05
2023-06-19T10:41:09.767Z,1.03
2023-06-19T10:41:59.917Z,1.05
2023-06-19T10:42:49.862Z,0.98
2023-06-19T10:43:40.013Z,1.04
2023-06-19T10:44:29.941Z,1.02
2023-06-19T10:45:20.000Z,1.05
2023-06-19T10:46:10.188Z,0.99
2023-06-19T10:47:00.252Z,1.03
2023-06-19T10:47:50.256Z,1.04
2023-06-19T10:48:40.435Z,0.99
2023-06-19T10:49:30.379Z,1.06
2023-06-19T10:50:20.549Z,0.99
2023-06-19T10:51:10.493Z,1.02
2023-06-19T10:52:00.595Z,1.02
2023-06-19T10:52:50.669Z,1.00
2023-06-19T10:53:40.782Z,0.99
2023-06-19T10:54:30.805Z,1.00
2023-06-19T10:55:20.894Z,0.96
2023-06-19T10:56:10.927Z,1.00
2023-06-19T10:57:01.040Z,0.96
2023-06-19T10:57:51.034Z,0.97
2023-06-19T10:58:41.228Z,0.97
2023-06-19T10:59:31.298Z,1.00
2023-06-19T11:00:21.637Z,0.97
2023-06-19T11:01:11.405Z,1.03
2023-06-19T11:02:01.536Z,0.98
2023-06-19T11:02:51.569Z,1.05
2023-06-19T11:03:41.709Z,1.05
2023-06-19T11:04:31.590Z,0.98
2023-06-19T11:05:21.691Z,0.99
2023-06-19T11:06:11.811Z,0.98